sensor_id;sensor_type;location;lat;lon;timestamp;P1;durP1;ratioP1;P2;durP2;ratioP2
13432;SDS011;6789;47.678;9.158;2023-12-29T00:02:45;17.63;;;10.40;;
13432;SDS011;6789;47.678;9.158;2023-12-29T00:07:36;16.10;;;9.40;;
13432;SDS011;6789;47.678;9.158;2023-12-29T00:12:28;13.83;;;9.90;;
13432;SDS011;6789;47.678;9.158;2023-12-29T00:17:20;15.60;;;10.47;;
13432;SDS011;6789;47.678;9.158;2023-12-29T00:22:12;16.97;;;10.10;;
13432;SDS011;6789;47.678;9.158;2023-12-29T00:27:04;18.30;;;9.10;;
13432;SDS011;6789;47.678;9.158;2023-12-29T00:31:56;10.93;;;7.67;;
13432;SDS011;6789;47.678;9.158;2023-12-29T00:36:48;9.63;;;6.77;;
13432;SDS011;6789;47.678;9.158;2023-12-29T00:41:40;9.90;;;6.67;;
13432;SDS011;6789;47.678;9.158;2023-12-29T00:46:35;10.60;;;6.77;;
13432;SDS011;6789;47.678;9.158;2023-12-29T00:51:27;13.47;;;7.23;;
13432;SDS011;6789;47.678;9.158;2023-12-29T00:56:19;9.20;;;6.67;;
13432;SDS011;6789;47.678;9.158;2023-12-29T01:01:11;10.97;;;6.73;;
13432;SDS011;6789;47.678;9.158;2023-12-29T01:06:03;9.60;;;6.83;;
13432;SDS011;6789;47.678;9.158;2023-12-29T01:10:55;9.37;;;6.17;;
13432;SDS011;6789;47.678;9.158;2023-12-29T01:15:47;7.60;;;5.40;;
13432;SDS011;6789;47.678;9.158;2023-12-29T01:20:39;6.40;;;4.93;;
13432;SDS011;6789;47.678;9.158;2023-12-29T01:25:32;8.30;;;5.60;;
13432;SDS011;6789;47.678;9.158;2023-12-29T01:35:30;8.17;;;5.60;;
13432;SDS011;6789;47.678;9.158;2023-12-29T01:40:22;9.70;;;6.47;;
13432;SDS011;6789;47.678;9.158;2023-12-29T01:45:23;8.17;;;6.13;;
13432;SDS011;6789;47.678;9.158;2023-12-29T01:50:21;11.07;;;6.77;;
13432;SDS011;6789;47.678;9.158;2023-12-29T01:55:15;9.33;;;7.20;;
13432;SDS011;6789;47.678;9.158;2023-12-29T02:00:11;10.77;;;7.10;;
13432;SDS011;6789;47.678;9.158;2023-12-29T02:05:04;14.23;;;8.30;;
13432;SDS011;6789;47.678;9.158;2023-12-29T02:09:57;10.77;;;7.60;;
13432;SDS011;6789;47.678;9.158;2023-12-29T02:14:51;9.37;;;7.33;;
13432;SDS011;6789;47.678;9.158;2023-12-29T02:19:44;10.53;;;7.13;;
13432;SDS011;6789;47.678;9.158;2023-12-29T02:24:45;9.73;;;7.13;;
13432;SDS011;6789;47.678;9.158;2023-12-29T02:29:40;10.57;;;7.27;;
13432;SDS011;6789;47.678;9.158;2023-12-29T02:34:44;10.37;;;7.33;;
13432;SDS011;6789;47.678;9.158;2023-12-29T02:39:41;10.33;;;7.23;;
13432;SDS011;6789;47.678;9.158;2023-12-29T02:44:33;10.63;;;7.73;;
13432;SDS011;6789;47.678;9.158;2023-12-29T02:49:26;12.30;;;7.37;;
13432;SDS011;6789;47.678;9.158;2023-12-29T02:54:18;12.53;;;8.97;;
13432;SDS011;6789;47.678;9.158;2023-12-29T02:59:10;14.40;;;8.50;;
13432;SDS011;6789;47.678;9.158;2023-12-29T03:04:01;11.73;;;7.43;;
13432;SDS011;6789;47.678;9.158;2023-12-29T03:08:54;9.93;;;7.30;;
13432;SDS011;6789;47.678;9.158;2023-12-29T03:13:45;10.80;;;7.80;;
13432;SDS011;6789;47.678;9.158;2023-12-29T03:18:37;10.67;;;7.70;;
13432;SDS011;6789;47.678;9.158;2023-12-29T03:23:31;11.37;;;7.67;;
13432;SDS011;6789;47.678;9.158;2023-12-29T03:28:22;11.03;;;7.23;;
13432;SDS011;6789;47.678;9.158;2023-12-29T03:33:15;11.33;;;7.43;;
13432;SDS011;6789;47.678;9.158;2023-12-29T03:38:06;12.70;;;7.97;;
13432;SDS011;6789;47.678;9.158;2023-12-29T03:42:58;10.57;;;7.30;;
13432;SDS011;6789;47.678;9.158;2023-12-29T03:47:50;12.83;;;8.57;;
13432;SDS011;6789;47.678;9.158;2023-12-29T03:52:42;9.80;;;7.17;;
13432;SDS011;6789;47.678;9.158;2023-12-29T03:57:34;11.33;;;7.10;;
13432;SDS011;6789;47.678;9.158;2023-12-29T04:02:25;10.03;;;7.30;;
13432;SDS011;6789;47.678;9.158;2023-12-29T04:07:17;9.77;;;7.00;;
13432;SDS011;6789;47.678;9.158;2023-12-29T04:12:09;11.57;;;7.17;;
13432;SDS011;6789;47.678;9.158;2023-12-29T04:17:01;10.87;;;7.90;;
13432;SDS011;6789;47.678;9.158;2023-12-29T04:21:56;9.07;;;6.40;;
13432;SDS011;6789;47.678;9.158;2023-12-29T04:26:48;8.13;;;5.97;;
13432;SDS011;6789;47.678;9.158;2023-12-29T04:31:39;10.67;;;6.10;;
13432;SDS011;6789;47.678;9.158;2023-12-29T04:36:32;7.20;;;5.23;;
13432;SDS011;6789;47.678;9.158;2023-12-29T04:41:24;6.17;;;4.83;;
13432;SDS011;6789;47.678;9.158;2023-12-29T04:46:16;9.60;;;4.97;;
13432;SDS011;6789;47.678;9.158;2023-12-29T04:51:08;5.83;;;4.10;;
13432;SDS011;6789;47.678;9.158;2023-12-29T04:56:00;4.80;;;3.97;;
13432;SDS011;6789;47.678;9.158;2023-12-29T05:00:52;5.17;;;4.00;;
13432;SDS011;6789;47.678;9.158;2023-12-29T05:05:43;7.23;;;4.03;;
13432;SDS011;6789;47.678;9.158;2023-12-29T05:10:35;6.30;;;3.90;;
13432;SDS011;6789;47.678;9.158;2023-12-29T05:15:27;5.47;;;3.90;;
13432;SDS011;6789;47.678;9.158;2023-12-29T05:20:19;6.00;;;4.10;;
13432;SDS011;6789;47.678;9.158;2023-12-29T05:25:11;5.97;;;3.83;;
13432;SDS011;6789;47.678;9.158;2023-12-29T05:30:03;6.07;;;4.13;;
13432;SDS011;6789;47.678;9.158;2023-12-29T05:34:55;7.20;;;4.30;;
13432;SDS011;6789;47.678;9.158;2023-12-29T05:39:47;6.60;;;4.60;;
13432;SDS011;6789;47.678;9.158;2023-12-29T05:44:39;6.07;;;4.03;;
13432;SDS011;6789;47.678;9.158;2023-12-29T05:49:31;7.97;;;4.07;;
13432;SDS011;6789;47.678;9.158;2023-12-29T05:54:29;6.43;;;4.10;;
13432;SDS011;6789;47.678;9.158;2023-12-29T05:59:20;5.93;;;3.83;;
13432;SDS011;6789;47.678;9.158;2023-12-29T06:04:12;7.37;;;3.90;;
13432;SDS011;6789;47.678;9.158;2023-12-29T06:09:04;4.47;;;3.50;;
13432;SDS011;6789;47.678;9.158;2023-12-29T06:13:56;6.20;;;3.70;;
13432;SDS011;6789;47.678;9.158;2023-12-29T06:18:48;4.87;;;3.40;;
13432;SDS011;6789;47.678;9.158;2023-12-29T06:23:41;5.03;;;3.57;;
13432;SDS011;6789;47.678;9.158;2023-12-29T06:28:32;5.37;;;3.90;;
13432;SDS011;6789;47.678;9.158;2023-12-29T06:33:24;6.80;;;3.93;;
13432;SDS011;6789;47.678;9.158;2023-12-29T06:38:16;6.33;;;4.13;;
13432;SDS011;6789;47.678;9.158;2023-12-29T06:43:08;4.90;;;3.57;;
13432;SDS011;6789;47.678;9.158;2023-12-29T06:48:00;8.37;;;5.10;;
13432;SDS011;6789;47.678;9.158;2023-12-29T06:52:53;5.53;;;3.87;;
13432;SDS011;6789;47.678;9.158;2023-12-29T06:57:45;5.23;;;3.57;;
13432;SDS011;6789;47.678;9.158;2023-12-29T07:02:38;5.37;;;3.80;;
13432;SDS011;6789;47.678;9.158;2023-12-29T07:07:31;5.53;;;3.53;;
13432;SDS011;6789;47.678;9.158;2023-12-29T07:12:23;5.90;;;3.30;;
13432;SDS011;6789;47.678;9.158;2023-12-29T07:17:15;7.10;;;3.67;;
13432;SDS011;6789;47.678;9.158;2023-12-29T07:22:06;6.67;;;3.90;;
13432;SDS011;6789;47.678;9.158;2023-12-29T07:26:59;5.97;;;3.60;;
13432;SDS011;6789;47.678;9.158;2023-12-29T07:31:51;5.33;;;3.70;;
13432;SDS011;6789;47.678;9.158;2023-12-29T07:36:42;10.70;;;4.80;;
13432;SDS011;6789;47.678;9.158;2023-12-29T07:41:38;7.83;;;4.60;;
13432;SDS011;6789;47.678;9.158;2023-12-29T07:46:32;7.27;;;4.30;;
13432;SDS011;6789;47.678;9.158;2023-12-29T07:51:24;8.03;;;4.23;;
13432;SDS011;6789;47.678;9.158;2023-12-29T07:56:16;5.07;;;3.70;;
13432;SDS011;6789;47.678;9.158;2023-12-29T08:01:07;5.40;;;3.40;;
13432;SDS011;6789;47.678;9.158;2023-12-29T08:06:00;6.03;;;3.47;;
13432;SDS011;6789;47.678;9.158;2023-12-29T08:10:52;6.53;;;3.80;;
13432;SDS011;6789;47.678;9.158;2023-12-29T08:15:43;6.87;;;4.20;;
13432;SDS011;6789;47.678;9.158;2023-12-29T08:20:35;7.30;;;4.97;;
13432;SDS011;6789;47.678;9.158;2023-12-29T08:25:27;6.47;;;4.20;;
13432;SDS011;6789;47.678;9.158;2023-12-29T08:30:19;6.50;;;4.60;;
13432;SDS011;6789;47.678;9.158;2023-12-29T08:35:11;5.67;;;4.00;;
13432;SDS011;6789;47.678;9.158;2023-12-29T08:40:03;6.57;;;4.60;;
13432;SDS011;6789;47.678;9.158;2023-12-29T08:44:58;8.03;;;4.87;;
13432;SDS011;6789;47.678;9.158;2023-12-29T08:49:51;5.43;;;3.93;;
13432;SDS011;6789;47.678;9.158;2023-12-29T08:54:42;5.30;;;4.23;;
13432;SDS011;6789;47.678;9.158;2023-12-29T08:59:35;6.00;;;4.13;;
13432;SDS011;6789;47.678;9.158;2023-12-29T09:04:26;7.63;;;4.80;;
13432;SDS011;6789;47.678;9.158;2023-12-29T09:09:18;6.77;;;4.83;;
13432;SDS011;6789;47.678;9.158;2023-12-29T09:14:10;6.90;;;4.57;;
13432;SDS011;6789;47.678;9.158;2023-12-29T09:19:02;4.70;;;3.70;;
13432;SDS011;6789;47.678;9.158;2023-12-29T09:24:08;5.40;;;3.23;;
13432;SDS011;6789;47.678;9.158;2023-12-29T09:28:59;4.23;;;2.90;;
13432;SDS011;6789;47.678;9.158;2023-12-29T09:33:52;3.70;;;3.10;;
13432;SDS011;6789;47.678;9.158;2023-12-29T09:38:44;4.63;;;2.90;;
13432;SDS011;6789;47.678;9.158;2023-12-29T09:43:37;3.53;;;2.57;;
13432;SDS011;6789;47.678;9.158;2023-12-29T09:48:31;2.57;;;2.37;;
13432;SDS011;6789;47.678;9.158;2023-12-29T09:53:28;3.70;;;2.70;;
13432;SDS011;6789;47.678;9.158;2023-12-29T09:58:36;3.80;;;2.53;;
13432;SDS011;6789;47.678;9.158;2023-12-29T10:03:29;3.63;;;2.53;;
13432;SDS011;6789;47.678;9.158;2023-12-29T10:08:20;5.30;;;2.40;;
13432;SDS011;6789;47.678;9.158;2023-12-29T10:13:28;3.57;;;2.57;;
13432;SDS011;6789;47.678;9.158;2023-12-29T10:18:31;6.83;;;2.30;;
13432;SDS011;6789;47.678;9.158;2023-12-29T10:29:00;3.00;;;2.30;;
13432;SDS011;6789;47.678;9.158;2023-12-29T10:33:52;4.00;;;2.33;;
13432;SDS011;6789;47.678;9.158;2023-12-29T10:39:21;2.83;;;2.40;;
13432;SDS011;6789;47.678;9.158;2023-12-29T10:44:14;2.37;;;1.97;;
13432;SDS011;6789;47.678;9.158;2023-12-29T10:49:07;4.47;;;2.13;;
13432;SDS011;6789;47.678;9.158;2023-12-29T10:54:04;2.73;;;1.87;;
13432;SDS011;6789;47.678;9.158;2023-12-29T10:58:58;3.00;;;1.90;;
13432;SDS011;6789;47.678;9.158;2023-12-29T11:03:59;2.20;;;2.00;;
13432;SDS011;6789;47.678;9.158;2023-12-29T11:09:01;2.20;;;1.93;;
13432;SDS011;6789;47.678;9.158;2023-12-29T11:13:53;2.30;;;2.00;;
13432;SDS011;6789;47.678;9.158;2023-12-29T11:18:45;2.50;;;1.90;;
13432;SDS011;6789;47.678;9.158;2023-12-29T11:23:37;2.20;;;2.00;;
13432;SDS011;6789;47.678;9.158;2023-12-29T11:28:29;3.33;;;1.80;;
13432;SDS011;6789;47.678;9.158;2023-12-29T11:33:23;2.23;;;2.00;;
13432;SDS011;6789;47.678;9.158;2023-12-29T11:43:27;2.30;;;1.90;;
13432;SDS011;6789;47.678;9.158;2023-12-29T11:48:52;2.80;;;1.83;;
13432;SDS011;6789;47.678;9.158;2023-12-29T11:54:02;2.30;;;1.70;;
13432;SDS011;6789;47.678;9.158;2023-12-29T11:58:55;4.20;;;2.07;;
13432;SDS011;6789;47.678;9.158;2023-12-29T12:03:47;2.73;;;1.97;;
13432;SDS011;6789;47.678;9.158;2023-12-29T12:08:39;2.70;;;1.70;;
13432;SDS011;6789;47.678;9.158;2023-12-29T12:13:44;3.87;;;2.10;;
13432;SDS011;6789;47.678;9.158;2023-12-29T12:18:37;2.47;;;1.83;;
13432;SDS011;6789;47.678;9.158;2023-12-29T12:23:31;2.00;;;1.80;;
13432;SDS011;6789;47.678;9.158;2023-12-29T12:28:27;2.37;;;1.87;;
13432;SDS011;6789;47.678;9.158;2023-12-29T12:33:20;2.00;;;1.70;;
13432;SDS011;6789;47.678;9.158;2023-12-29T12:38:13;2.57;;;1.73;;
13432;SDS011;6789;47.678;9.158;2023-12-29T12:43:13;2.37;;;1.80;;
13432;SDS011;6789;47.678;9.158;2023-12-29T12:48:12;1.80;;;1.70;;
13432;SDS011;6789;47.678;9.158;2023-12-29T12:53:15;1.90;;;1.70;;
13432;SDS011;6789;47.678;9.158;2023-12-29T12:58:14;2.43;;;1.90;;
13432;SDS011;6789;47.678;9.158;2023-12-29T13:03:06;2.60;;;1.90;;
13432;SDS011;6789;47.678;9.158;2023-12-29T13:07:58;2.40;;;1.90;;
13432;SDS011;6789;47.678;9.158;2023-12-29T13:12:53;2.60;;;1.77;;
13432;SDS011;6789;47.678;9.158;2023-12-29T13:17:50;1.67;;;1.40;;
13432;SDS011;6789;47.678;9.158;2023-12-29T13:22:51;2.83;;;1.80;;
13432;SDS011;6789;47.678;9.158;2023-12-29T13:27:45;3.40;;;1.43;;
13432;SDS011;6789;47.678;9.158;2023-12-29T13:32:55;2.90;;;1.60;;
13432;SDS011;6789;47.678;9.158;2023-12-29T13:43:03;1.37;;;1.27;;
13432;SDS011;6789;47.678;9.158;2023-12-29T13:47:59;2.93;;;1.70;;
13432;SDS011;6789;47.678;9.158;2023-12-29T13:52:53;1.80;;;1.57;;
13432;SDS011;6789;47.678;9.158;2023-12-29T13:57:45;3.10;;;1.53;;
13432;SDS011;6789;47.678;9.158;2023-12-29T14:02:37;3.60;;;1.63;;
13432;SDS011;6789;47.678;9.158;2023-12-29T14:07:31;2.20;;;1.50;;
13432;SDS011;6789;47.678;9.158;2023-12-29T14:12:24;1.67;;;1.23;;
13432;SDS011;6789;47.678;9.158;2023-12-29T14:17:21;2.43;;;1.90;;
13432;SDS011;6789;47.678;9.158;2023-12-29T14:22:21;1.80;;;1.37;;
13432;SDS011;6789;47.678;9.158;2023-12-29T14:27:14;2.10;;;1.50;;
13432;SDS011;6789;47.678;9.158;2023-12-29T14:32:08;1.50;;;1.40;;
13432;SDS011;6789;47.678;9.158;2023-12-29T14:37:00;4.13;;;1.70;;
13432;SDS011;6789;47.678;9.158;2023-12-29T14:41:52;2.17;;;1.60;;
13432;SDS011;6789;47.678;9.158;2023-12-29T14:46:44;1.77;;;1.40;;
13432;SDS011;6789;47.678;9.158;2023-12-29T14:51:36;1.70;;;1.30;;
13432;SDS011;6789;47.678;9.158;2023-12-29T14:56:28;1.87;;;1.67;;
13432;SDS011;6789;47.678;9.158;2023-12-29T15:01:34;1.83;;;1.50;;
13432;SDS011;6789;47.678;9.158;2023-12-29T15:06:26;2.57;;;1.57;;
13432;SDS011;6789;47.678;9.158;2023-12-29T15:11:18;4.13;;;1.60;;
13432;SDS011;6789;47.678;9.158;2023-12-29T15:16:12;1.83;;;1.50;;
13432;SDS011;6789;47.678;9.158;2023-12-29T15:21:04;2.60;;;1.50;;
13432;SDS011;6789;47.678;9.158;2023-12-29T15:25:56;2.37;;;1.60;;
13432;SDS011;6789;47.678;9.158;2023-12-29T15:30:48;1.80;;;1.47;;
13432;SDS011;6789;47.678;9.158;2023-12-29T15:35:41;1.60;;;1.47;;
13432;SDS011;6789;47.678;9.158;2023-12-29T15:40:33;2.07;;;1.60;;
13432;SDS011;6789;47.678;9.158;2023-12-29T15:45:25;2.03;;;1.60;;
13432;SDS011;6789;47.678;9.158;2023-12-29T15:50:17;2.27;;;1.60;;
13432;SDS011;6789;47.678;9.158;2023-12-29T15:55:10;2.07;;;1.70;;
13432;SDS011;6789;47.678;9.158;2023-12-29T16:00:02;3.10;;;1.63;;
13432;SDS011;6789;47.678;9.158;2023-12-29T16:04:56;1.83;;;1.60;;
13432;SDS011;6789;47.678;9.158;2023-12-29T16:09:48;2.73;;;2.00;;
13432;SDS011;6789;47.678;9.158;2023-12-29T16:14:40;3.83;;;2.27;;
13432;SDS011;6789;47.678;9.158;2023-12-29T16:19:32;3.20;;;2.53;;
13432;SDS011;6789;47.678;9.158;2023-12-29T16:24:24;2.80;;;2.13;;
13432;SDS011;6789;47.678;9.158;2023-12-29T16:29:18;2.00;;;1.80;;
13432;SDS011;6789;47.678;9.158;2023-12-29T16:34:10;1.93;;;1.70;;
13432;SDS011;6789;47.678;9.158;2023-12-29T16:39:02;3.30;;;2.23;;
13432;SDS011;6789;47.678;9.158;2023-12-29T16:43:54;1.93;;;1.77;;
13432;SDS011;6789;47.678;9.158;2023-12-29T16:48:47;2.90;;;1.60;;
13432;SDS011;6789;47.678;9.158;2023-12-29T16:53:40;2.60;;;1.73;;
13432;SDS011;6789;47.678;9.158;2023-12-29T16:58:32;1.70;;;1.60;;
13432;SDS011;6789;47.678;9.158;2023-12-29T17:03:24;2.00;;;1.60;;
13432;SDS011;6789;47.678;9.158;2023-12-29T17:08:16;1.77;;;1.67;;
13432;SDS011;6789;47.678;9.158;2023-12-29T17:13:07;2.67;;;1.80;;
13432;SDS011;6789;47.678;9.158;2023-12-29T17:17:59;2.80;;;2.10;;
13432;SDS011;6789;47.678;9.158;2023-12-29T17:22:52;2.03;;;1.60;;
13432;SDS011;6789;47.678;9.158;2023-12-29T17:27:44;3.97;;;1.77;;
13432;SDS011;6789;47.678;9.158;2023-12-29T17:32:36;2.40;;;1.60;;
13432;SDS011;6789;47.678;9.158;2023-12-29T17:37:29;2.57;;;1.80;;
13432;SDS011;6789;47.678;9.158;2023-12-29T17:42:23;2.90;;;2.07;;
13432;SDS011;6789;47.678;9.158;2023-12-29T17:47:16;3.37;;;2.30;;
13432;SDS011;6789;47.678;9.158;2023-12-29T17:52:08;2.23;;;1.87;;
13432;SDS011;6789;47.678;9.158;2023-12-29T17:57:00;2.20;;;2.00;;
13432;SDS011;6789;47.678;9.158;2023-12-29T18:01:52;2.20;;;2.00;;
13432;SDS011;6789;47.678;9.158;2023-12-29T18:06:46;3.10;;;1.83;;
13432;SDS011;6789;47.678;9.158;2023-12-29T18:11:50;3.33;;;2.47;;
13432;SDS011;6789;47.678;9.158;2023-12-29T18:16:42;3.30;;;2.30;;
13432;SDS011;6789;47.678;9.158;2023-12-29T18:21:34;2.87;;;1.70;;
13432;SDS011;6789;47.678;9.158;2023-12-29T18:26:28;2.83;;;1.70;;
13432;SDS011;6789;47.678;9.158;2023-12-29T18:31:19;2.63;;;1.80;;
13432;SDS011;6789;47.678;9.158;2023-12-29T18:36:11;2.50;;;1.93;;
13432;SDS011;6789;47.678;9.158;2023-12-29T18:41:04;2.70;;;2.10;;
13432;SDS011;6789;47.678;9.158;2023-12-29T18:46:01;4.37;;;2.70;;
13432;SDS011;6789;47.678;9.158;2023-12-29T18:51:00;4.77;;;2.47;;
13432;SDS011;6789;47.678;9.158;2023-12-29T18:55:53;4.27;;;3.00;;
13432;SDS011;6789;47.678;9.158;2023-12-29T19:00:45;5.97;;;3.90;;
13432;SDS011;6789;47.678;9.158;2023-12-29T19:05:38;4.60;;;2.63;;
13432;SDS011;6789;47.678;9.158;2023-12-29T19:10:31;6.77;;;3.80;;
13432;SDS011;6789;47.678;9.158;2023-12-29T19:15:25;3.90;;;2.27;;
13432;SDS011;6789;47.678;9.158;2023-12-29T19:20:17;5.57;;;3.63;;
13432;SDS011;6789;47.678;9.158;2023-12-29T19:25:12;6.67;;;3.70;;
13432;SDS011;6789;47.678;9.158;2023-12-29T19:30:04;4.63;;;3.13;;
13432;SDS011;6789;47.678;9.158;2023-12-29T19:34:57;5.13;;;3.23;;
13432;SDS011;6789;47.678;9.158;2023-12-29T19:39:50;4.23;;;3.10;;
13432;SDS011;6789;47.678;9.158;2023-12-29T19:44:41;4.80;;;2.80;;
13432;SDS011;6789;47.678;9.158;2023-12-29T19:49:33;3.73;;;2.60;;
13432;SDS011;6789;47.678;9.158;2023-12-29T19:54:25;6.13;;;3.27;;
13432;SDS011;6789;47.678;9.158;2023-12-29T19:59:17;3.27;;;2.40;;
13432;SDS011;6789;47.678;9.158;2023-12-29T20:04:10;4.20;;;2.40;;
13432;SDS011;6789;47.678;9.158;2023-12-29T20:09:02;3.93;;;2.20;;
13432;SDS011;6789;47.678;9.158;2023-12-29T20:13:58;3.33;;;2.07;;
13432;SDS011;6789;47.678;9.158;2023-12-29T20:18:54;3.27;;;2.37;;
13432;SDS011;6789;47.678;9.158;2023-12-29T20:23:47;3.20;;;2.33;;
13432;SDS011;6789;47.678;9.158;2023-12-29T20:28:39;3.97;;;2.63;;
13432;SDS011;6789;47.678;9.158;2023-12-29T20:33:31;7.87;;;3.67;;
13432;SDS011;6789;47.678;9.158;2023-12-29T20:38:23;3.73;;;2.53;;
13432;SDS011;6789;47.678;9.158;2023-12-29T20:43:14;3.93;;;2.80;;
13432;SDS011;6789;47.678;9.158;2023-12-29T20:48:06;3.63;;;2.27;;
13432;SDS011;6789;47.678;9.158;2023-12-29T20:52:59;3.80;;;2.77;;
13432;SDS011;6789;47.678;9.158;2023-12-29T20:57:51;3.23;;;2.30;;
13432;SDS011;6789;47.678;9.158;2023-12-29T21:02:43;2.87;;;2.10;;
13432;SDS011;6789;47.678;9.158;2023-12-29T21:07:35;4.43;;;2.03;;
13432;SDS011;6789;47.678;9.158;2023-12-29T21:12:27;3.40;;;2.23;;
13432;SDS011;6789;47.678;9.158;2023-12-29T21:17:19;3.90;;;2.90;;
13432;SDS011;6789;47.678;9.158;2023-12-29T21:22:11;4.17;;;2.63;;
13432;SDS011;6789;47.678;9.158;2023-12-29T21:27:03;3.27;;;2.50;;
13432;SDS011;6789;47.678;9.158;2023-12-29T21:31:55;2.43;;;2.23;;
13432;SDS011;6789;47.678;9.158;2023-12-29T21:36:47;2.93;;;2.50;;
13432;SDS011;6789;47.678;9.158;2023-12-29T21:41:39;4.67;;;2.67;;
13432;SDS011;6789;47.678;9.158;2023-12-29T21:46:31;4.57;;;2.93;;
13432;SDS011;6789;47.678;9.158;2023-12-29T21:51:23;3.37;;;2.47;;
13432;SDS011;6789;47.678;9.158;2023-12-29T21:56:17;4.17;;;2.43;;
13432;SDS011;6789;47.678;9.158;2023-12-29T22:01:28;3.07;;;2.50;;
13432;SDS011;6789;47.678;9.158;2023-12-29T22:06:24;3.27;;;2.80;;
13432;SDS011;6789;47.678;9.158;2023-12-29T22:11:17;3.00;;;2.50;;
13432;SDS011;6789;47.678;9.158;2023-12-29T22:16:11;3.83;;;2.93;;
13432;SDS011;6789;47.678;9.158;2023-12-29T22:21:04;3.70;;;2.90;;
13432;SDS011;6789;47.678;9.158;2023-12-29T22:25:56;2.87;;;2.60;;
13432;SDS011;6789;47.678;9.158;2023-12-29T22:30:48;6.07;;;3.03;;
13432;SDS011;6789;47.678;9.158;2023-12-29T22:35:40;3.23;;;2.80;;
13432;SDS011;6789;47.678;9.158;2023-12-29T22:40:32;3.93;;;2.97;;
13432;SDS011;6789;47.678;9.158;2023-12-29T22:45:24;3.10;;;2.50;;
13432;SDS011;6789;47.678;9.158;2023-12-29T22:50:17;4.00;;;2.80;;
13432;SDS011;6789;47.678;9.158;2023-12-29T22:55:09;3.10;;;2.80;;
13432;SDS011;6789;47.678;9.158;2023-12-29T23:00:01;4.23;;;3.27;;
13432;SDS011;6789;47.678;9.158;2023-12-29T23:05:08;4.37;;;3.10;;
13432;SDS011;6789;47.678;9.158;2023-12-29T23:10:14;5.03;;;3.27;;
13432;SDS011;6789;47.678;9.158;2023-12-29T23:15:22;5.47;;;3.43;;
13432;SDS011;6789;47.678;9.158;2023-12-29T23:20:14;4.37;;;3.67;;
13432;SDS011;6789;47.678;9.158;2023-12-29T23:25:06;5.00;;;3.30;;
13432;SDS011;6789;47.678;9.158;2023-12-29T23:29:59;4.70;;;3.20;;
13432;SDS011;6789;47.678;9.158;2023-12-29T23:34:50;4.43;;;3.33;;
13432;SDS011;6789;47.678;9.158;2023-12-29T23:39:42;3.77;;;3.17;;
13432;SDS011;6789;47.678;9.158;2023-12-29T23:44:35;4.10;;;3.27;;
13432;SDS011;6789;47.678;9.158;2023-12-29T23:49:28;4.33;;;3.23;;
13432;SDS011;6789;47.678;9.158;2023-12-29T23:54:21;4.77;;;2.90;;
13432;SDS011;6789;47.678;9.158;2023-12-29T23:59:14;3.07;;;2.70;;
